createdAt,value
2019-05-01T06:46:10.949Z,59.10
2019-05-01T06:51:38.576Z,53.50
2019-05-01T06:57:05.311Z,44.90
2019-05-01T07:02:36.928Z,43.70
2019-05-01T07:13:19.378Z,48.80
2019-05-01T07:18:49.779Z,40.90
2019-05-01T07:24:15.604Z,38.30
2019-05-01T07:29:44.795Z,38.30
2019-05-01T07:35:03.935Z,35.80
2019-05-01T07:40:30.550Z,38.40
2019-05-01T07:45:45.530Z,36.20
2019-05-01T07:51:09.862Z,37.80
2019-05-01T07:56:30.578Z,31.90
2019-05-01T08:01:55.670Z,32.20
2019-05-01T08:07:08.159Z,29.10
2019-05-01T08:12:25.830Z,31.90
2019-05-01T08:17:53.118Z,33.50
2019-05-01T08:23:13.708Z,37.70
2019-05-01T08:28:31.925Z,31.20
2019-05-01T08:33:52.857Z,35.20
2019-05-01T08:39:21.574Z,41.10
2019-05-01T08:45:04.952Z,38.80
2019-05-01T08:51:02.829Z,43.30
2019-05-01T08:57:52.658Z,41.80
2019-05-01T09:03:56.095Z,38.00
2019-05-01T09:09:48.292Z,38.20
2019-05-01T09:16:34.032Z,42.80
2019-05-01T09:22:37.366Z,44.30
2019-05-01T09:29:15.993Z,47.20
2019-05-01T09:34:25.357Z,37.70
2019-05-01T09:39:47.717Z,40.10
2019-05-01T09:45:04.898Z,42.60
2019-05-01T09:50:08.341Z,40.20
2019-05-01T09:55:42.939Z,42.70
2019-05-01T10:00:54.343Z,42.60
2019-05-01T10:05:58.138Z,41.10
2019-05-01T10:11:29.223Z,46.20
2019-05-01T10:16:23.232Z,51.30
2019-05-01T10:21:36.733Z,53.10
2019-05-01T10:26:41.040Z,46.70
2019-05-01T10:32:21.535Z,51.70
2019-05-01T10:37:28.201Z,50.90
2019-05-01T10:42:31.382Z,57.00
2019-05-01T10:47:51.972Z,66.50
2019-05-01T10:52:46.764Z,58.30
2019-05-01T10:57:52.085Z,58.10
2019-05-01T11:02:57.697Z,52.70
2019-05-01T11:08:01.727Z,47.10
2019-05-01T11:12:57.387Z,42.70
2019-05-01T11:18:16.842Z,45.80
2019-05-01T11:23:17.048Z,39.40
2019-05-01T11:28:18.528Z,34.20
2019-05-01T11:33:11.160Z,32.50
2019-05-01T11:38:05.564Z,29.60
2019-05-01T11:43:03.186Z,27.60
2019-05-01T11:47:57.246Z,26.90
2019-05-01T11:53:00.147Z,26.90
2019-05-01T11:58:10.834Z,27.30
2019-05-01T12:03:12.785Z,25.70
2019-05-01T12:08:14.393Z,26.60
2019-05-01T12:13:08.067Z,29.10
2019-05-01T12:18:03.884Z,26.80
2019-05-01T12:23:07.285Z,30.00
2019-05-01T12:28:00.429Z,27.90
2019-05-01T12:32:53.776Z,24.40
2019-05-01T12:37:49.874Z,24.40
2019-05-01T12:42:53.198Z,26.30
2019-05-01T12:47:47.347Z,25.00
2019-05-01T12:52:50.628Z,26.10
2019-05-01T12:57:44.445Z,26.00
2019-05-01T13:02:36.398Z,22.80
2019-05-01T13:07:32.328Z,26.00
2019-05-01T13:12:27.147Z,24.80
2019-05-01T13:17:21.409Z,23.60
2019-05-01T13:22:17.546Z,24.20
2019-05-01T13:27:13.854Z,24.30
2019-05-01T13:32:08.949Z,26.10
2019-05-01T13:37:03.994Z,26.30
2019-05-01T13:41:59.039Z,26.90
2019-05-01T13:46:55.487Z,25.00
2019-05-01T13:51:47.532Z,26.10
2019-05-01T13:56:40.775Z,24.60
2019-05-01T14:01:33.382Z,24.70
2019-05-01T14:06:25.494Z,25.00
2019-05-01T14:11:17.450Z,26.30
2019-05-01T14:16:18.538Z,26.30
2019-05-01T14:21:10.084Z,25.70
2019-05-01T14:26:02.947Z,25.30
2019-05-01T14:30:55.428Z,27.60
2019-05-01T14:35:48.073Z,27.10
2019-05-01T14:40:40.845Z,26.60
2019-05-01T14:45:33.699Z,25.00
2019-05-01T14:50:51.676Z,29.50
2019-05-01T14:55:51.486Z,30.30
2019-05-01T15:12:31.964Z,25.80
2019-05-01T15:23:05.016Z,27.70
2019-05-01T15:28:04.694Z,28.80
2019-05-01T15:33:05.478Z,26.10
2019-05-01T15:43:58.306Z,31.70
2019-05-01T15:49:54.770Z,32.60
2019-05-01T16:01:25.473Z,35.90
2019-05-01T16:06:47.653Z,33.10
2019-05-01T16:11:54.323Z,30.80
2019-05-01T16:16:52.102Z,33.40
2019-05-01T16:21:58.166Z,30.50
2019-05-01T16:27:13.786Z,32.10
2019-05-01T16:32:03.004Z,27.70
2019-05-01T16:36:59.318Z,30.00
2019-05-01T16:48:06.466Z,37.10
2019-05-01T17:17:06.333Z,31.30
2019-05-01T17:22:22.356Z,31.00
2019-05-01T17:38:55.359Z,29.90
2019-05-01T17:44:03.456Z,32.70
2019-05-01T17:55:08.334Z,33.70
2019-05-01T18:06:01.217Z,33.20
2019-05-01T18:10:59.307Z,31.40
2019-05-01T18:16:49.603Z,39.80
2019-05-01T18:27:10.030Z,33.40
2019-05-01T18:34:38.208Z,37.40
2019-05-01T18:40:04.385Z,32.30
2019-05-01T18:45:26.887Z,34.60
2019-05-01T18:56:48.020Z,37.90
2019-05-01T19:07:19.163Z,36.50
2019-05-01T19:13:12.067Z,39.20
2019-05-01T19:18:51.862Z,42.50
2019-05-01T19:24:43.865Z,41.20
2019-05-01T19:48:13.928Z,45.40
2019-05-01T20:04:21.828Z,46.80
2019-05-01T20:10:26.976Z,43.70
2019-05-01T20:15:58.699Z,41.50
2019-05-01T20:23:59.641Z,48.50
2019-05-01T20:29:57.188Z,42.20
2019-05-01T20:35:12.092Z,39.20
2019-05-01T20:43:53.308Z,47.30
2019-05-01T20:50:07.584Z,44.00
2019-05-01T20:55:21.138Z,38.90
2019-05-01T21:04:10.151Z,44.30
2019-05-01T21:10:59.229Z,43.60
2019-05-01T21:35:11.372Z,43.70
2019-05-01T21:49:04.928Z,43.40
2019-05-01T22:02:27.570Z,42.70
2019-05-01T22:08:06.162Z,38.50
2019-05-01T22:13:24.225Z,36.60
2019-05-01T22:19:37.478Z,39.20
2019-05-01T22:33:33.372Z,42.20
2019-05-01T22:41:44.982Z,42.50
